createdAt,value
2022-09-25T00:04:38.558Z,99319.71
2022-09-25T00:14:44.484Z,99305.83
2022-09-25T00:24:50.713Z,99295.90
2022-09-25T00:34:56.650Z,99291.41
2022-09-25T00:45:03.849Z,99286.67
2022-09-25T00:55:12.660Z,99284.59
2022-09-25T01:05:22.588Z,99280.61
2022-09-25T01:15:37.501Z,99280.70
2022-09-25T01:25:58.117Z,99276.67
2022-09-25T01:36:09.394Z,99271.48
2022-09-25T01:46:19.316Z,99274.32
2022-09-25T01:56:33.689Z,99274.20
2022-09-25T02:06:44.898Z,99275.42
2022-09-25T02:16:55.693Z,99274.38
2022-09-25T02:27:01.456Z,99273.21
2022-09-25T02:37:13.242Z,99267.64
2022-09-25T02:47:32.566Z,99258.45
2022-09-25T02:57:43.392Z,99246.00
2022-09-25T03:08:07.019Z,99243.35
2022-09-25T03:18:12.868Z,99249.31
2022-09-25T03:28:18.871Z,99239.39
2022-09-25T03:38:24.540Z,99234.98
2022-09-25T03:48:30.150Z,99235.98
2022-09-25T03:58:36.119Z,99237.05
2022-09-25T04:08:41.908Z,99245.48
2022-09-25T04:18:47.722Z,99249.80
2022-09-25T04:28:53.338Z,99242.36
2022-09-25T04:38:58.932Z,99238.20
2022-09-25T04:49:04.441Z,99242.52
2022-09-25T04:59:11.778Z,99231.31
2022-09-25T05:09:17.629Z,99227.94
2022-09-25T05:19:23.253Z,99233.19
2022-09-25T05:29:28.810Z,99242.50
2022-09-25T05:39:34.370Z,99243.42
2022-09-25T05:49:39.976Z,99235.40
2022-09-25T05:59:45.625Z,99229.33
2022-09-25T06:09:51.264Z,99227.54
2022-09-25T06:19:57.017Z,99235.73
2022-09-25T06:30:02.814Z,99234.84
2022-09-25T06:40:11.133Z,99225.95
2022-09-25T06:50:15.465Z,99224.44
2022-09-25T07:00:21.520Z,99228.33
2022-09-25T07:10:27.244Z,99221.52
2022-09-25T07:20:32.934Z,99209.18
2022-09-25T07:30:38.605Z,99205.48
2022-09-25T07:40:44.603Z,99207.61
2022-09-25T07:50:50.473Z,99189.02
2022-09-25T08:01:00.145Z,99184.55
2022-09-25T08:11:08.029Z,99182.13
2022-09-25T08:21:15.177Z,99170.95
2022-09-25T08:31:21.664Z,99177.33
2022-09-25T08:41:31.172Z,99159.19
2022-09-25T08:51:40.505Z,99157.86
2022-09-25T09:01:53.280Z,99149.70
2022-09-25T09:12:03.846Z,99150.73
2022-09-25T09:22:13.530Z,99139.16
2022-09-25T09:32:35.073Z,99129.27
2022-09-25T09:42:51.275Z,99121.45
2022-09-25T09:53:03.244Z,99113.91
2022-09-25T10:03:22.216Z,99108.05
2022-09-25T10:13:32.926Z,99104.64
2022-09-25T10:23:42.880Z,99097.70
2022-09-25T10:34:04.977Z,99085.66
2022-09-25T10:44:24.076Z,99074.27
2022-09-25T10:54:30.062Z,99069.81
2022-09-25T11:04:36.569Z,99062.46
2022-09-25T11:14:55.282Z,99059.09
2022-09-25T11:25:15.420Z,99052.13
2022-09-25T11:35:45.460Z,99052.51
2022-09-25T11:45:57.113Z,99047.52
2022-09-25T11:56:17.442Z,99028.38
2022-09-25T12:06:39.697Z,99025.70
2022-09-25T12:16:53.733Z,99010.02
2022-09-25T12:27:10.063Z,99001.89
2022-09-25T12:37:29.567Z,98997.25
2022-09-25T12:47:41.555Z,98992.73
2022-09-25T12:57:51.890Z,98995.02
2022-09-25T13:08:06.195Z,98986.11
2022-09-25T13:18:24.216Z,98979.49
2022-09-25T13:28:33.509Z,98970.14
2022-09-25T13:39:04.253Z,98969.48
2022-09-25T13:49:36.246Z,98956.48
2022-09-25T13:59:42.576Z,98948.97
2022-09-25T14:09:53.796Z,98941.94
2022-09-25T14:20:01.129Z,98939.63
2022-09-25T14:30:13.930Z,98936.21
2022-09-25T14:40:24.638Z,98931.09
2022-09-25T14:50:33.477Z,98921.45
2022-09-25T15:00:48.102Z,98916.58
2022-09-25T15:11:03.894Z,98913.38
2022-09-25T15:21:15.270Z,98910.16
2022-09-25T15:31:21.699Z,98904.69
2022-09-25T15:41:28.289Z,98894.88
2022-09-25T15:51:37.200Z,98886.04
2022-09-25T16:02:02.270Z,98884.00
2022-09-25T16:12:23.185Z,98887.93
2022-09-25T16:22:31.991Z,98889.55
2022-09-25T16:32:37.745Z,98880.95
2022-09-25T16:42:43.681Z,98882.42
2022-09-25T16:52:50.002Z,98887.44
2022-09-25T17:02:56.615Z,98895.77
2022-09-25T17:13:03.924Z,98894.80
2022-09-25T17:23:10.915Z,98890.88
2022-09-25T17:33:18.941Z,98884.17
2022-09-25T17:43:24.609Z,98881.07
2022-09-25T17:53:31.990Z,98879.48
2022-09-25T18:03:37.695Z,98879.02
2022-09-25T18:13:43.877Z,98881.38
2022-09-25T18:23:49.581Z,98873.71
2022-09-25T18:33:55.793Z,98876.80
2022-09-25T18:44:01.733Z,98877.60
2022-09-25T18:54:08.867Z,98881.80
2022-09-25T19:04:17.697Z,98885.77
2022-09-25T19:14:24.210Z,98886.04
2022-09-25T19:24:30.983Z,98887.99
2022-09-25T19:34:37.106Z,98880.42
2022-09-25T19:44:42.850Z,98872.11
2022-09-25T19:54:48.559Z,98876.28
2022-09-25T20:04:54.209Z,98870.14
2022-09-25T20:14:59.883Z,98869.11
2022-09-25T20:25:06.202Z,98870.23
2022-09-25T20:35:12.434Z,98875.35
2022-09-25T20:45:18.591Z,98869.77
2022-09-25T20:55:24.331Z,98864.83
2022-09-25T21:05:30.240Z,98861.73
2022-09-25T21:15:37.465Z,98869.61
2022-09-25T21:25:43.110Z,98863.30
2022-09-25T21:35:50.515Z,98857.31
2022-09-25T21:45:59.824Z,98853.64
2022-09-25T21:56:08.101Z,98843.08
2022-09-25T22:06:16.042Z,98834.30
2022-09-25T22:16:23.956Z,98822.29
2022-09-25T22:26:30.813Z,98804.70
2022-09-25T22:36:37.316Z,98796.08
2022-09-25T22:46:43.036Z,98792.55
2022-09-25T22:56:48.929Z,98787.31
2022-09-25T23:06:54.677Z,98778.15
2022-09-25T23:17:01.271Z,98772.60
2022-09-25T23:27:07.010Z,98762.40
2022-09-25T23:37:13.720Z,98754.33
2022-09-25T23:47:19.448Z,98752.77
2022-09-25T23:57:25.104Z,98738.23
